createdAt,value
2019-03-16T00:02:50.308Z,100409.34
2019-03-16T00:08:56.138Z,100427.31
2019-03-16T00:15:02.260Z,100427.73
2019-03-16T00:21:08.010Z,100422.02
2019-03-16T00:27:13.906Z,100436.50
2019-03-16T00:33:19.722Z,100452.28
2019-03-16T00:39:25.516Z,100457.97
2019-03-16T00:45:31.884Z,100449.20
2019-03-16T00:51:37.726Z,100457.97
2019-03-16T00:57:43.583Z,100453.53
2019-03-16T01:03:49.315Z,100451.39
2019-03-16T01:09:55.046Z,100457.06
2019-03-16T01:16:00.840Z,100449.63
2019-03-16T01:22:06.718Z,100457.06
2019-03-16T01:28:12.532Z,100463.23
2019-03-16T01:34:18.342Z,100458.86
2019-03-16T01:40:24.200Z,100468.52
2019-03-16T01:46:30.005Z,100459.34
2019-03-16T01:52:35.805Z,100473.40
2019-03-16T01:58:41.620Z,100458.05
2019-03-16T02:04:47.329Z,100468.58
2019-03-16T02:10:53.238Z,100466.41
2019-03-16T02:16:59.209Z,100463.32
2019-03-16T02:23:05.082Z,100458.50
2019-03-16T02:29:11.189Z,100465.56
2019-03-16T02:35:17.025Z,100452.83
2019-03-16T02:41:23.051Z,100466.04
2019-03-16T02:47:28.823Z,100451.59
2019-03-16T02:53:34.589Z,100450.72
2019-03-16T02:59:40.337Z,100455.59
2019-03-16T03:05:46.176Z,100445.93
2019-03-16T03:11:51.926Z,100442.91
2019-03-16T03:17:57.649Z,100446.01
2019-03-16T03:24:03.447Z,100422.79
2019-03-16T03:30:10.110Z,100431.12
2019-03-16T03:36:15.895Z,100439.45
2019-03-16T03:42:21.677Z,100444.29
2019-03-16T03:48:27.692Z,100445.61
2019-03-16T03:54:33.495Z,100446.96
2019-03-16T04:00:39.340Z,100443.92
2019-03-16T04:06:45.213Z,100436.89
2019-03-16T04:12:50.984Z,100441.31
2019-03-16T04:18:56.701Z,100434.28
2019-03-16T04:25:02.558Z,100432.09
2019-03-16T04:31:08.335Z,100436.02
2019-03-16T04:37:14.393Z,100433.87
2019-03-16T04:43:20.175Z,100435.59
2019-03-16T04:49:26.213Z,100427.73
2019-03-16T04:55:31.974Z,100418.11
2019-03-16T05:01:37.675Z,100412.42
2019-03-16T05:07:43.447Z,100414.63
2019-03-16T05:13:49.248Z,100419.44
2019-03-16T05:19:55.007Z,100411.53
2019-03-16T05:26:00.749Z,100403.69
2019-03-16T05:32:06.763Z,100407.63
2019-03-16T05:38:12.462Z,100410.66
2019-03-16T05:44:18.222Z,100402.37
2019-03-16T05:50:23.896Z,100399.73
2019-03-16T05:56:29.654Z,100403.23
2019-03-16T06:02:35.501Z,100401.47
2019-03-16T06:08:41.314Z,100403.20
2019-03-16T06:14:47.042Z,100394.92
2019-03-16T06:20:52.860Z,100397.55
2019-03-16T06:26:58.714Z,100397.12
2019-03-16T06:33:04.512Z,100388.80
2019-03-16T06:39:10.406Z,100383.55
2019-03-16T06:45:17.109Z,100375.67
2019-03-16T06:51:23.286Z,100401.52
2019-03-16T06:57:29.037Z,100385.77
2019-03-16T07:03:34.903Z,100375.23
2019-03-16T07:09:40.978Z,100370.38
2019-03-16T07:15:46.999Z,100366.02
2019-03-16T07:21:52.819Z,100356.36
2019-03-16T07:27:58.608Z,100349.32
2019-03-16T07:34:04.454Z,100340.94
2019-03-16T07:40:10.636Z,100337.36
2019-03-16T07:46:16.518Z,100337.72
2019-03-16T07:52:22.379Z,100339.80
2019-03-16T07:58:28.247Z,100325.14
2019-03-16T08:04:33.991Z,100331.50
2019-03-16T08:10:40.307Z,100323.39
2019-03-16T08:16:46.423Z,100323.12
2019-03-16T08:22:52.499Z,100333.09
2019-03-16T08:28:59.314Z,100351.07
2019-03-16T08:35:05.580Z,100347.47
2019-03-16T08:41:11.299Z,100346.56
2019-03-16T08:47:17.559Z,100348.78
2019-03-16T08:53:23.445Z,100334.28
2019-03-16T08:59:29.233Z,100340.87
2019-03-16T09:05:35.139Z,100335.56
2019-03-16T09:11:41.021Z,100338.98
2019-03-16T09:17:47.032Z,100322.23
2019-03-16T09:23:52.839Z,100327.45
2019-03-16T09:29:58.647Z,100311.10
2019-03-16T09:36:04.449Z,100293.59
2019-03-16T09:42:09.625Z,100307.87
2019-03-16T09:48:15.565Z,100303.47
2019-03-16T09:54:21.321Z,100302.54
2019-03-16T10:00:27.156Z,100294.08
2019-03-16T10:06:33.232Z,100272.88
2019-03-16T10:12:39.030Z,100277.78
2019-03-16T10:18:45.021Z,100279.09
2019-03-16T10:24:50.907Z,100256.19
2019-03-16T10:30:56.794Z,100265.81
2019-03-16T10:37:02.582Z,100262.66
2019-03-16T10:43:08.560Z,100257.66
2019-03-16T10:49:14.398Z,100253.06
2019-03-16T10:55:20.188Z,100239.88
2019-03-16T11:01:26.234Z,100230.50
2019-03-16T11:07:32.238Z,100218.09
2019-03-16T11:13:38.093Z,100226.57
2019-03-16T11:19:43.935Z,100233.02
2019-03-16T11:25:50.016Z,100221.34
2019-03-16T11:31:55.915Z,100233.84
2019-03-16T11:38:01.644Z,100229.68
2019-03-16T11:44:07.372Z,100239.00
2019-03-16T11:50:13.321Z,100234.60
2019-03-16T11:56:19.108Z,100227.64
2019-03-16T12:02:24.859Z,100235.56
2019-03-16T12:08:32.447Z,100222.50
2019-03-16T12:14:38.275Z,100227.64
2019-03-16T12:20:44.211Z,100224.98
2019-03-16T12:26:49.966Z,100224.02
2019-03-16T12:32:55.761Z,100223.07
2019-03-16T12:39:01.642Z,100207.63
2019-03-16T12:45:10.938Z,100194.02
2019-03-16T12:51:16.970Z,100185.25
2019-03-16T12:57:22.744Z,100189.59
2019-03-16T13:03:28.576Z,100188.41
2019-03-16T13:09:34.401Z,100187.23
2019-03-16T13:15:40.210Z,100181.50
2019-03-16T13:21:46.050Z,100167.81
2019-03-16T13:27:51.783Z,100170.97
2019-03-16T13:33:57.835Z,100154.53
2019-03-16T13:40:03.670Z,100155.72
2019-03-16T13:46:10.178Z,100152.63
2019-03-16T13:52:16.067Z,100155.23
2019-03-16T13:58:21.794Z,100150.83
2019-03-16T14:04:27.578Z,100144.56
2019-03-16T14:10:33.312Z,100131.53
2019-03-16T14:16:39.199Z,100133.61
2019-03-16T14:22:47.464Z,100122.29
2019-03-16T14:28:53.454Z,100118.92
2019-03-16T14:34:59.214Z,100118.22
2019-03-16T14:41:05.142Z,100110.12
2019-03-16T14:47:10.861Z,100103.95
2019-03-16T14:53:16.919Z,100105.83
2019-03-16T14:59:22.762Z,100106.66
2019-03-16T15:05:28.675Z,100087.36
2019-03-16T15:11:34.501Z,100087.52
2019-03-16T15:17:40.419Z,100076.49
2019-03-16T15:23:46.301Z,100076.52
2019-03-16T15:29:52.362Z,100065.19
2019-03-16T15:35:58.212Z,100058.73
2019-03-16T15:42:04.004Z,100048.62
2019-03-16T15:48:09.777Z,100036.50
2019-03-16T15:54:15.659Z,100018.73
2019-03-16T16:00:21.618Z,100011.66
2019-03-16T16:06:27.388Z,100004.08
2019-03-16T16:12:33.448Z,99990.41
2019-03-16T16:18:39.286Z,99982.02
2019-03-16T16:24:45.029Z,99978.03
2019-03-16T16:30:50.988Z,99983.43
2019-03-16T16:36:56.752Z,99982.16
2019-03-16T16:43:02.502Z,99973.41
2019-03-16T16:49:08.335Z,99969.64
2019-03-16T16:55:15.544Z,99969.19
2019-03-16T17:01:29.332Z,99958.33
2019-03-16T17:07:28.851Z,99965.45
2019-03-16T17:13:34.680Z,99958.50
2019-03-16T17:19:40.538Z,99956.31
2019-03-16T17:25:46.404Z,99952.84
2019-03-16T17:31:52.258Z,99936.19
2019-03-16T17:37:58.150Z,99938.52
2019-03-16T17:44:04.088Z,99933.28
2019-03-16T17:50:10.372Z,99922.72
2019-03-16T17:56:16.200Z,99916.12
2019-03-16T18:02:21.959Z,99913.56
2019-03-16T18:08:27.687Z,99912.78
2019-03-16T18:14:37.555Z,99909.28
2019-03-16T18:20:43.455Z,99903.63
2019-03-16T18:26:49.215Z,99897.05
2019-03-16T18:32:55.057Z,99893.58
2019-03-16T18:39:00.895Z,99889.25
2019-03-16T18:45:08.190Z,99890.14
2019-03-16T18:51:13.929Z,99895.42
2019-03-16T18:57:20.074Z,99904.59
2019-03-16T19:03:25.866Z,99893.64
2019-03-16T19:09:33.018Z,99895.33
2019-03-16T19:15:38.769Z,99889.67
2019-03-16T19:21:44.488Z,99874.67
2019-03-16T19:27:50.306Z,99869.88
2019-03-16T19:33:56.081Z,99858.83
2019-03-16T19:40:01.924Z,99854.78
2019-03-16T19:46:07.896Z,99848.64
2019-03-16T19:52:13.752Z,99829.36
2019-03-16T19:58:19.690Z,99830.68
2019-03-16T20:04:35.344Z,99824.08
2019-03-16T20:10:33.007Z,99811.91
2019-03-16T20:16:38.856Z,99810.63
2019-03-16T20:22:44.691Z,99797.83
2019-03-16T20:28:50.739Z,99788.33
2019-03-16T20:34:56.522Z,99772.93
2019-03-16T20:41:02.299Z,99777.00
2019-03-16T20:47:08.056Z,99756.38
2019-03-16T20:53:13.852Z,99760.42
2019-03-16T20:59:19.691Z,99750.76
2019-03-16T21:05:25.507Z,99740.32
2019-03-16T21:11:31.306Z,99734.64
2019-03-16T21:17:37.082Z,99725.41
2019-03-16T21:23:42.829Z,99715.38
2019-03-16T21:29:48.655Z,99698.80
2019-03-16T21:35:54.645Z,99697.14
2019-03-16T21:42:00.392Z,99692.35
2019-03-16T21:48:06.310Z,99688.36
2019-03-16T21:54:12.142Z,99684.92
2019-03-16T22:00:18.084Z,99675.30
2019-03-16T22:06:23.869Z,99660.81
2019-03-16T22:12:29.572Z,99656.38
2019-03-16T22:18:35.372Z,99654.07
2019-03-16T22:24:42.421Z,99643.95
2019-03-16T22:30:48.201Z,99641.22
2019-03-16T22:36:54.023Z,99643.80
2019-03-16T22:42:59.873Z,99631.03
2019-03-16T22:49:05.787Z,99618.21
2019-03-16T22:55:11.602Z,99611.85
2019-03-16T23:01:17.555Z,99601.76
2019-03-16T23:07:23.648Z,99587.41
2019-03-16T23:13:29.409Z,99581.54
2019-03-16T23:19:35.202Z,99584.02
2019-03-16T23:25:40.991Z,99572.01
2019-03-16T23:31:46.764Z,99558.22
2019-03-16T23:37:52.570Z,99553.30
2019-03-16T23:43:58.566Z,99550.23
2019-03-16T23:50:04.404Z,99546.13
2019-03-16T23:56:10.163Z,99531.98
